createdAt,value
2023-03-28T00:01:14.974Z,6.17
2023-03-28T00:03:46.267Z,6.16
2023-03-28T00:06:19.023Z,6.14
2023-03-28T00:08:48.329Z,6.13
2023-03-28T00:11:21.991Z,6.13
2023-03-28T00:14:03.770Z,6.10
2023-03-28T00:16:39.664Z,6.05
2023-03-28T00:19:11.903Z,6.02
2023-03-28T00:21:47.202Z,6.00
2023-03-28T00:24:19.037Z,6.00
2023-03-28T00:26:54.837Z,5.99
2023-03-28T00:29:26.353Z,6.01
2023-03-28T00:31:54.634Z,6.03
2023-03-28T00:34:22.884Z,6.04
2023-03-28T00:36:54.305Z,6.04
2023-03-28T00:39:23.960Z,6.07
2023-03-28T00:41:52.738Z,6.08
2023-03-28T00:44:46.022Z,6.08
2023-03-28T00:47:33.650Z,6.09
2023-03-28T00:50:05.677Z,6.09
2023-03-28T00:53:10.003Z,6.08
2023-03-28T00:55:44.804Z,6.05
2023-03-28T00:58:18.690Z,6.02
2023-03-28T01:00:47.358Z,6.00
2023-03-28T01:03:22.823Z,6.00
2023-03-28T01:05:52.614Z,5.99
2023-03-28T01:08:25.653Z,5.98
2023-03-28T01:10:55.319Z,5.95
2023-03-28T01:13:31.673Z,5.92
2023-03-28T01:16:04.163Z,5.88
2023-03-28T01:18:35.991Z,5.85
2023-03-28T01:21:20.737Z,5.81
2023-03-28T01:24:28.752Z,5.80
2023-03-28T01:27:31.509Z,5.78
2023-03-28T01:30:21.562Z,5.76
2023-03-28T01:33:31.226Z,5.72
2023-03-28T01:36:34.530Z,5.68
2023-03-28T01:39:22.046Z,5.64
2023-03-28T01:42:15.109Z,5.60
2023-03-28T01:45:11.859Z,5.55
2023-03-28T01:47:42.514Z,5.50
2023-03-28T01:50:30.174Z,5.43
2023-03-28T01:53:35.788Z,5.37
2023-03-28T01:56:41.557Z,5.33
2023-03-28T01:59:19.975Z,5.35
2023-03-28T02:02:10.000Z,5.37
2023-03-28T02:04:42.232Z,5.39
2023-03-28T02:07:13.435Z,5.42
2023-03-28T02:10:05.044Z,5.46
2023-03-28T02:12:59.867Z,5.48
2023-03-28T02:16:01.592Z,5.50
2023-03-28T02:19:01.585Z,5.50
2023-03-28T02:22:03.469Z,5.50
2023-03-28T02:24:57.996Z,5.50
2023-03-28T02:27:41.404Z,5.51
2023-03-28T02:30:18.032Z,5.51
2023-03-28T02:32:50.801Z,5.52
2023-03-28T02:35:28.003Z,5.54
2023-03-28T02:37:59.474Z,5.56
2023-03-28T02:40:43.586Z,5.57
2023-03-28T02:43:30.749Z,5.58
2023-03-28T02:46:27.391Z,5.58
2023-03-28T02:49:16.687Z,5.59
2023-03-28T02:52:16.764Z,5.60
2023-03-28T02:55:06.460Z,5.63
2023-03-28T02:58:08.383Z,5.65
2023-03-28T03:00:39.915Z,5.67
2023-03-28T03:03:10.841Z,5.69
2023-03-28T03:05:39.450Z,5.71
2023-03-28T03:08:07.991Z,5.74
2023-03-28T03:10:50.665Z,5.77
2023-03-28T03:13:20.832Z,5.79
2023-03-28T03:15:50.386Z,5.81
2023-03-28T03:18:24.820Z,5.85
2023-03-28T03:20:53.884Z,5.88
2023-03-28T03:23:27.752Z,5.91
2023-03-28T03:25:58.748Z,5.94
2023-03-28T03:28:33.555Z,5.97
2023-03-28T03:31:04.997Z,6.01
2023-03-28T03:33:34.669Z,6.04
2023-03-28T03:36:13.012Z,6.07
2023-03-28T03:38:44.971Z,6.11
2023-03-28T03:41:17.386Z,6.15
2023-03-28T03:43:47.465Z,6.18
2023-03-28T03:46:16.027Z,6.22
2023-03-28T03:48:49.946Z,6.25
2023-03-28T03:51:19.501Z,6.29
2023-03-28T03:53:50.916Z,6.33
2023-03-28T03:56:21.435Z,6.36
2023-03-28T03:59:00.614Z,6.38
2023-03-28T04:01:35.254Z,6.40
2023-03-28T04:04:30.811Z,6.40
2023-03-28T04:07:07.686Z,6.40
2023-03-28T04:09:41.105Z,6.42
2023-03-28T04:12:11.873Z,6.43
2023-03-28T04:14:58.086Z,6.43
2023-03-28T04:17:50.519Z,6.43
2023-03-28T04:20:22.518Z,6.44
2023-03-28T04:23:10.819Z,6.45
2023-03-28T04:25:43.244Z,6.47
2023-03-28T04:28:18.153Z,6.46
2023-03-28T04:30:59.947Z,6.47
2023-03-28T04:34:10.760Z,6.47
2023-03-28T04:36:47.451Z,6.47
2023-03-28T04:39:15.714Z,6.46
2023-03-28T04:42:04.658Z,6.47
2023-03-28T04:44:55.984Z,6.48
2023-03-28T04:47:25.687Z,6.49
2023-03-28T04:49:54.463Z,6.51
2023-03-28T04:52:23.254Z,6.54
2023-03-28T04:54:51.649Z,6.55
2023-03-28T04:57:27.596Z,6.58
2023-03-28T05:00:01.667Z,6.62
2023-03-28T05:02:49.740Z,6.66
2023-03-28T05:05:23.576Z,6.69
2023-03-28T05:07:52.490Z,6.71
2023-03-28T05:10:22.311Z,6.73
2023-03-28T05:12:52.806Z,6.76
2023-03-28T05:15:23.382Z,6.79
2023-03-28T05:18:18.100Z,6.82
2023-03-28T05:20:48.291Z,6.85
2023-03-28T05:23:16.898Z,6.86
2023-03-28T05:25:53.231Z,6.86
2023-03-28T05:28:22.550Z,6.89
2023-03-28T05:30:53.180Z,6.94
2023-03-28T05:33:22.629Z,6.99
2023-03-28T05:35:51.125Z,7.04
2023-03-28T05:38:22.705Z,7.12
2023-03-28T05:40:54.708Z,7.20
2023-03-28T05:43:23.155Z,7.29
2023-03-28T05:45:52.537Z,7.39
2023-03-28T05:48:24.254Z,7.47
2023-03-28T05:50:56.598Z,7.51
2023-03-28T05:53:25.785Z,7.55
2023-03-28T05:55:54.092Z,7.57
2023-03-28T05:58:22.990Z,7.60
2023-03-28T06:00:52.642Z,7.62
2023-03-28T06:03:23.632Z,7.64
2023-03-28T06:05:52.313Z,7.62
2023-03-28T06:08:23.215Z,7.63
2023-03-28T06:11:00.975Z,7.67
2023-03-28T06:13:34.128Z,7.77
2023-03-28T06:16:03.876Z,7.88
2023-03-28T06:18:35.919Z,7.99
2023-03-28T06:21:05.178Z,8.09
2023-03-28T06:23:33.746Z,8.21
2023-03-28T06:26:05.299Z,8.32
2023-03-28T06:28:38.832Z,8.40
2023-03-28T06:31:36.883Z,8.46
2023-03-28T06:34:05.282Z,8.47
2023-03-28T06:36:35.956Z,8.50
2023-03-28T06:39:04.750Z,8.53
2023-03-28T06:41:35.210Z,8.55
2023-03-28T06:44:04.612Z,8.55
2023-03-28T06:47:01.550Z,8.51
2023-03-28T06:49:30.100Z,8.45
2023-03-28T06:52:37.743Z,8.39
2023-03-28T06:55:08.502Z,8.34
2023-03-28T06:57:36.974Z,8.31
2023-03-28T07:00:15.907Z,8.38
2023-03-28T07:03:03.280Z,8.53
2023-03-28T07:05:40.054Z,8.70
2023-03-28T07:08:10.543Z,8.90
2023-03-28T07:10:40.766Z,9.06
2023-03-28T07:13:11.207Z,9.20
2023-03-28T07:15:47.534Z,9.33
2023-03-28T07:18:15.967Z,9.41
2023-03-28T07:20:45.653Z,9.45
2023-03-28T07:23:18.150Z,9.44
2023-03-28T07:25:46.453Z,9.39
2023-03-28T07:28:17.412Z,9.34
2023-03-28T07:30:45.784Z,9.33
2023-03-28T07:33:23.438Z,9.36
2023-03-28T07:35:57.100Z,9.38
2023-03-28T07:38:25.787Z,9.38
2023-03-28T07:41:01.575Z,9.39
2023-03-28T07:43:30.715Z,9.43
2023-03-28T07:46:06.837Z,9.47
2023-03-28T07:48:38.127Z,9.53
2023-03-28T07:51:07.944Z,9.58
2023-03-28T07:53:38.035Z,9.58
2023-03-28T07:56:12.375Z,9.54
2023-03-28T07:59:02.213Z,9.49
2023-03-28T08:01:32.368Z,9.50
2023-03-28T08:04:05.401Z,9.55
2023-03-28T08:06:45.910Z,9.65
2023-03-28T08:09:17.048Z,9.72
2023-03-28T08:11:51.479Z,9.79
2023-03-28T08:14:20.548Z,9.82
2023-03-28T08:16:48.848Z,9.84
2023-03-28T08:19:18.142Z,9.86
2023-03-28T08:22:05.763Z,9.89
2023-03-28T08:24:38.883Z,9.99
2023-03-28T08:27:12.555Z,10.15
2023-03-28T08:29:42.087Z,10.29
2023-03-28T08:32:11.223Z,10.45
2023-03-28T08:34:41.464Z,10.59
2023-03-28T08:37:15.596Z,10.67
2023-03-28T08:39:47.466Z,10.77
2023-03-28T08:42:39.529Z,10.93
2023-03-28T08:45:26.832Z,11.14
2023-03-28T08:48:47.235Z,11.26
2023-03-28T08:51:40.684Z,11.34
2023-03-28T08:54:24.942Z,11.42
2023-03-28T08:56:57.415Z,11.54
2023-03-28T08:59:29.656Z,11.74
2023-03-28T09:01:58.036Z,12.00
2023-03-28T09:04:35.314Z,12.25
2023-03-28T09:07:15.722Z,12.51
2023-03-28T09:10:00.000Z,12.66
2023-03-28T09:12:58.683Z,12.78
2023-03-28T09:16:09.572Z,12.84
2023-03-28T09:19:10.766Z,12.77
2023-03-28T09:22:15.162Z,12.70
2023-03-28T09:25:30.985Z,12.65
2023-03-28T09:28:25.724Z,12.65
2023-03-28T09:30:58.133Z,12.69
2023-03-28T09:33:40.861Z,12.73
2023-03-28T09:36:13.887Z,12.78
2023-03-28T09:38:52.117Z,12.83
2023-03-28T09:41:28.890Z,12.92
2023-03-28T09:44:21.789Z,13.08
2023-03-28T09:47:25.040Z,13.22
2023-03-28T09:50:11.918Z,13.30
2023-03-28T09:52:49.018Z,13.40
2023-03-28T09:55:30.812Z,13.51
2023-03-28T09:58:12.129Z,13.64
2023-03-28T10:01:00.656Z,13.66
2023-03-28T10:03:54.508Z,13.67
2023-03-28T10:06:32.172Z,13.71
2023-03-28T10:09:29.049Z,13.77
2023-03-28T10:12:04.972Z,13.90
2023-03-28T10:14:46.856Z,14.02
2023-03-28T10:17:40.757Z,14.20
2023-03-28T10:20:17.513Z,14.34
2023-03-28T10:22:53.045Z,14.48
2023-03-28T10:25:32.187Z,14.55
2023-03-28T10:28:01.273Z,14.55
2023-03-28T10:30:32.760Z,14.50
2023-03-28T10:33:29.681Z,14.41
2023-03-28T10:36:33.221Z,14.37
2023-03-28T10:39:26.944Z,14.38
2023-03-28T10:42:15.708Z,14.38
2023-03-28T10:45:36.887Z,14.42
2023-03-28T10:48:23.125Z,14.45
2023-03-28T10:50:54.951Z,14.43
2023-03-28T10:53:49.398Z,14.38
2023-03-28T10:56:41.618Z,14.35
2023-03-28T10:59:19.254Z,14.33
2023-03-28T11:01:48.046Z,14.32
2023-03-28T11:04:41.249Z,14.30
2023-03-28T11:07:51.595Z,14.32
2023-03-28T11:10:46.139Z,14.31
2023-03-28T11:13:28.034Z,14.29
2023-03-28T11:16:06.274Z,14.33
2023-03-28T11:19:00.282Z,14.46
2023-03-28T11:21:52.540Z,14.59
2023-03-28T11:24:37.846Z,14.68
2023-03-28T11:27:16.487Z,14.78
2023-03-28T11:30:16.051Z,14.85
2023-03-28T11:33:03.138Z,14.88
2023-03-28T11:35:37.880Z,14.87
2023-03-28T11:38:22.627Z,14.87
2023-03-28T11:41:22.068Z,14.91
2023-03-28T11:44:31.680Z,14.95
2023-03-28T11:47:08.533Z,14.92
2023-03-28T11:49:46.202Z,14.88
2023-03-28T11:52:45.967Z,14.79
2023-03-28T11:55:23.825Z,14.73
2023-03-28T11:58:01.504Z,14.64
2023-03-28T12:00:44.073Z,14.56
2023-03-28T12:03:23.675Z,14.46
2023-03-28T12:06:26.341Z,14.37
2023-03-28T12:09:07.835Z,14.27
2023-03-28T12:11:43.384Z,14.18
2023-03-28T12:14:12.624Z,14.09
2023-03-28T12:16:49.795Z,14.01
2023-03-28T12:19:40.287Z,13.94
2023-03-28T12:22:22.891Z,13.87
2023-03-28T12:24:52.768Z,13.82
2023-03-28T12:27:49.962Z,13.78
2023-03-28T12:30:35.916Z,13.73
2023-03-28T12:33:23.473Z,13.62
2023-03-28T12:36:10.724Z,13.50
2023-03-28T12:38:45.818Z,13.44
2023-03-28T12:41:36.504Z,13.41
2023-03-28T12:44:24.806Z,13.40
2023-03-28T12:47:03.019Z,13.39
2023-03-28T12:49:48.759Z,13.35
2023-03-28T12:52:23.472Z,13.22
2023-03-28T12:55:01.594Z,13.10
2023-03-28T12:57:47.426Z,12.99
2023-03-28T13:01:20.061Z,12.90
2023-03-28T13:04:29.234Z,12.87
2023-03-28T13:07:17.785Z,12.86
2023-03-28T13:09:56.230Z,12.88
2023-03-28T13:12:38.234Z,12.91
2023-03-28T13:15:15.734Z,12.94
2023-03-28T13:18:08.353Z,12.99
2023-03-28T13:20:46.108Z,13.02
2023-03-28T13:23:16.849Z,13.03
2023-03-28T13:26:02.766Z,12.99
2023-03-28T13:28:33.113Z,12.94
2023-03-28T13:31:34.249Z,12.89
2023-03-28T13:34:03.886Z,12.83
2023-03-28T13:36:51.341Z,12.79
2023-03-28T13:39:26.289Z,12.76
2023-03-28T13:41:57.328Z,12.72
2023-03-28T13:44:40.600Z,12.64
2023-03-28T13:47:18.206Z,12.51
2023-03-28T13:50:00.412Z,12.39
2023-03-28T13:52:28.830Z,12.27
2023-03-28T13:55:01.711Z,12.18
2023-03-28T13:57:30.347Z,12.12
2023-03-28T14:00:01.718Z,12.05
2023-03-28T14:02:49.297Z,11.94
2023-03-28T14:05:29.474Z,11.85
2023-03-28T14:08:13.438Z,11.79
2023-03-28T14:10:46.438Z,11.73
2023-03-28T14:13:33.732Z,11.65
2023-03-28T14:16:02.267Z,11.57
2023-03-28T14:18:37.306Z,11.49
2023-03-28T14:21:07.953Z,11.42
2023-03-28T14:23:40.059Z,11.36
2023-03-28T14:26:17.455Z,11.31
2023-03-28T14:28:47.650Z,11.24
2023-03-28T14:31:38.679Z,11.20
2023-03-28T14:34:18.357Z,11.15
2023-03-28T14:37:15.046Z,11.11
2023-03-28T14:39:45.561Z,11.04
2023-03-28T14:42:17.218Z,11.00
2023-03-28T14:44:50.987Z,10.96
2023-03-28T14:47:33.583Z,10.95
2023-03-28T14:50:02.629Z,10.91
2023-03-28T14:52:37.404Z,10.88
2023-03-28T14:55:06.715Z,10.85
2023-03-28T14:57:37.967Z,10.81
2023-03-28T15:00:13.101Z,10.78
2023-03-28T15:02:46.456Z,10.76
2023-03-28T15:05:19.760Z,10.73
2023-03-28T15:08:00.334Z,10.72
2023-03-28T15:10:29.919Z,10.70
2023-03-28T15:13:02.249Z,10.67
2023-03-28T15:15:33.594Z,10.65
2023-03-28T15:18:07.057Z,10.61
2023-03-28T15:20:38.403Z,10.58
2023-03-28T15:23:27.896Z,10.56
2023-03-28T15:25:59.830Z,10.53
2023-03-28T15:28:28.886Z,10.51
2023-03-28T15:31:00.788Z,10.50
2023-03-28T15:33:33.937Z,10.50
2023-03-28T15:36:12.426Z,10.50
2023-03-28T15:39:10.810Z,10.49
2023-03-28T15:41:39.255Z,10.50
2023-03-28T15:44:31.356Z,10.49
2023-03-28T15:47:29.543Z,10.50
2023-03-28T15:50:06.363Z,10.50
2023-03-28T15:52:35.930Z,10.50
2023-03-28T15:55:06.515Z,10.49
2023-03-28T15:57:39.054Z,10.49
2023-03-28T16:00:28.227Z,10.49
2023-03-28T16:03:18.128Z,10.49
2023-03-28T16:05:52.439Z,10.49
2023-03-28T16:08:33.996Z,10.50
2023-03-28T16:11:05.211Z,10.50
2023-03-28T16:13:37.871Z,10.50
2023-03-28T16:16:07.506Z,10.49
2023-03-28T16:18:59.303Z,10.49
2023-03-28T16:21:32.145Z,10.48
2023-03-28T16:24:00.562Z,10.48
2023-03-28T16:26:29.355Z,10.48
2023-03-28T16:28:57.735Z,10.48
2023-03-28T16:31:31.030Z,10.48
2023-03-28T16:34:00.495Z,10.48
2023-03-28T16:36:28.907Z,10.49
2023-03-28T16:38:57.250Z,10.50
2023-03-28T16:41:26.843Z,10.50
2023-03-28T16:43:56.520Z,10.51
2023-03-28T16:46:25.200Z,10.51
2023-03-28T16:48:54.021Z,10.51
2023-03-28T16:51:22.412Z,10.51
2023-03-28T16:53:50.804Z,10.50
2023-03-28T16:56:19.524Z,10.48
2023-03-28T16:58:48.519Z,10.48
2023-03-28T17:01:19.550Z,10.46
2023-03-28T17:03:49.827Z,10.46
2023-03-28T17:06:18.193Z,10.45
2023-03-28T17:08:47.193Z,10.44
2023-03-28T17:11:16.337Z,10.42
2023-03-28T17:13:47.653Z,10.40
2023-03-28T17:16:16.521Z,10.38
2023-03-28T17:18:45.522Z,10.36
2023-03-28T17:21:16.228Z,10.35
2023-03-28T17:23:48.140Z,10.33
2023-03-28T17:26:17.572Z,10.32
2023-03-28T17:28:46.954Z,10.31
2023-03-28T17:31:18.841Z,10.31
2023-03-28T17:33:48.114Z,10.31
2023-03-28T17:36:25.919Z,10.33
2023-03-28T17:38:57.764Z,10.33
2023-03-28T17:41:27.946Z,10.32
2023-03-28T17:43:57.852Z,10.33
2023-03-28T17:46:26.908Z,10.34
2023-03-28T17:48:55.602Z,10.36
2023-03-28T17:51:24.565Z,10.36
2023-03-28T17:53:54.336Z,10.37
2023-03-28T17:56:24.488Z,10.38
2023-03-28T17:58:52.743Z,10.39
2023-03-28T18:01:21.301Z,10.39
2023-03-28T18:03:51.502Z,10.39
2023-03-28T18:06:33.627Z,10.38
2023-03-28T18:09:01.969Z,10.39
2023-03-28T18:11:31.671Z,10.38
2023-03-28T18:14:00.876Z,10.38
2023-03-28T18:16:29.945Z,10.37
2023-03-28T18:18:58.451Z,10.36
2023-03-28T18:21:27.856Z,10.36
2023-03-28T18:23:57.682Z,10.36
2023-03-28T18:26:28.900Z,10.36
2023-03-28T18:28:59.126Z,10.35
2023-03-28T18:31:29.046Z,10.36
2023-03-28T18:33:58.014Z,10.37
2023-03-28T18:36:26.664Z,10.37
2023-03-28T18:38:56.317Z,10.37
2023-03-28T18:41:30.387Z,10.37
2023-03-28T18:44:00.469Z,10.37
2023-03-28T18:46:30.266Z,10.36
2023-03-28T18:49:00.560Z,10.37
2023-03-28T18:51:29.586Z,10.38
2023-03-28T18:53:58.667Z,10.37
2023-03-28T18:56:27.304Z,10.36
2023-03-28T18:58:57.572Z,10.34
2023-03-28T19:01:26.753Z,10.30
2023-03-28T19:03:56.080Z,10.26
2023-03-28T19:06:24.568Z,10.22
2023-03-28T19:08:52.870Z,10.18
2023-03-28T19:11:21.658Z,10.15
2023-03-28T19:13:56.211Z,10.14
2023-03-28T19:16:25.238Z,10.13
2023-03-28T19:18:53.920Z,10.11
2023-03-28T19:21:22.265Z,10.08
2023-03-28T19:23:50.990Z,10.04
2023-03-28T19:26:20.052Z,10.00
2023-03-28T19:28:49.847Z,9.98
2023-03-28T19:31:20.426Z,9.96
2023-03-28T19:33:49.360Z,9.93
2023-03-28T19:36:18.144Z,9.90
2023-03-28T19:38:46.814Z,9.87
2023-03-28T19:41:22.299Z,9.84
2023-03-28T19:43:55.522Z,9.83
2023-03-28T19:46:33.171Z,9.82
2023-03-28T19:49:06.678Z,9.80
2023-03-28T19:51:35.314Z,9.78
2023-03-28T19:54:03.875Z,9.78
2023-03-28T19:56:32.786Z,9.78
2023-03-28T19:59:01.451Z,9.78
2023-03-28T20:01:32.108Z,9.76
2023-03-28T20:04:02.565Z,9.73
2023-03-28T20:06:31.070Z,9.69
2023-03-28T20:09:06.343Z,9.68
2023-03-28T20:11:35.976Z,9.66
2023-03-28T20:14:04.411Z,9.65
2023-03-28T20:16:38.634Z,9.64
2023-03-28T20:19:07.254Z,9.64
2023-03-28T20:21:35.644Z,9.63
2023-03-28T20:24:04.553Z,9.63
2023-03-28T20:26:33.287Z,9.61
2023-03-28T20:29:10.439Z,9.60
2023-03-28T20:31:40.523Z,9.58
2023-03-28T20:34:09.022Z,9.56
2023-03-28T20:36:42.450Z,9.55
2023-03-28T20:39:11.237Z,9.52
2023-03-28T20:41:40.174Z,9.49
2023-03-28T20:44:20.262Z,9.45
2023-03-28T20:46:49.398Z,9.43
2023-03-28T20:49:22.906Z,9.40
2023-03-28T20:51:52.590Z,9.37
2023-03-28T20:54:24.481Z,9.33
2023-03-28T20:56:56.100Z,9.29
2023-03-28T20:59:27.519Z,9.28
2023-03-28T21:01:56.140Z,9.26
2023-03-28T21:04:25.296Z,9.22
2023-03-28T21:06:58.729Z,9.19
2023-03-28T21:09:27.555Z,9.17
2023-03-28T21:11:55.845Z,9.15
2023-03-28T21:14:29.498Z,9.14
2023-03-28T21:16:58.294Z,9.15
2023-03-28T21:19:26.980Z,9.13
2023-03-28T21:21:57.347Z,9.10
2023-03-28T21:24:26.169Z,9.01
2023-03-28T21:26:54.688Z,8.84
2023-03-28T21:29:24.770Z,8.68
2023-03-28T21:31:53.880Z,8.55
2023-03-28T21:34:30.781Z,8.46
2023-03-28T21:36:59.284Z,8.37
2023-03-28T21:39:27.962Z,8.31
2023-03-28T21:42:00.233Z,8.29
2023-03-28T21:44:30.238Z,8.24
2023-03-28T21:46:58.683Z,8.15
2023-03-28T21:49:27.215Z,8.07
2023-03-28T21:51:55.781Z,8.01
2023-03-28T21:54:24.097Z,7.97
2023-03-28T21:56:52.784Z,7.93
2023-03-28T21:59:21.282Z,7.90
2023-03-28T22:01:53.409Z,7.87
2023-03-28T22:04:22.653Z,7.85
2023-03-28T22:06:51.545Z,7.82
2023-03-28T22:09:21.849Z,7.77
2023-03-28T22:11:50.286Z,7.73
2023-03-28T22:14:19.600Z,7.71
2023-03-28T22:16:49.479Z,7.69
2023-03-28T22:19:18.961Z,7.68
2023-03-28T22:21:51.682Z,7.67
2023-03-28T22:24:20.074Z,7.64
2023-03-28T22:26:53.116Z,7.61
2023-03-28T22:29:22.605Z,7.60
2023-03-28T22:31:50.929Z,7.59
2023-03-28T22:34:21.230Z,7.57
2023-03-28T22:36:50.312Z,7.55
2023-03-28T22:39:19.550Z,7.53
2023-03-28T22:41:48.442Z,7.54
2023-03-28T22:44:17.398Z,7.53
2023-03-28T22:46:45.787Z,7.53
2023-03-28T22:49:22.182Z,7.50
2023-03-28T22:51:51.089Z,7.46
2023-03-28T22:54:22.927Z,7.36
2023-03-28T22:56:51.197Z,7.27
2023-03-28T22:59:19.999Z,7.19
2023-03-28T23:01:49.648Z,7.12
2023-03-28T23:04:20.552Z,7.07
2023-03-28T23:06:51.382Z,7.03
2023-03-28T23:09:20.505Z,7.00
2023-03-28T23:11:55.272Z,6.98
2023-03-28T23:14:23.679Z,6.96
2023-03-28T23:16:52.695Z,6.89
2023-03-28T23:19:24.403Z,6.80
2023-03-28T23:21:54.869Z,6.66
2023-03-28T23:24:23.483Z,6.54
2023-03-28T23:26:52.210Z,6.42
2023-03-28T23:29:20.710Z,6.31
2023-03-28T23:31:50.871Z,6.22
2023-03-28T23:34:19.390Z,6.13
2023-03-28T23:36:50.761Z,6.04
2023-03-28T23:39:19.266Z,5.97
2023-03-28T23:41:47.813Z,5.90
2023-03-28T23:44:18.577Z,5.80
2023-03-28T23:46:49.975Z,5.71
2023-03-28T23:49:19.234Z,5.64
2023-03-28T23:51:47.767Z,5.57
2023-03-28T23:54:18.241Z,5.49
2023-03-28T23:56:49.359Z,5.40
2023-03-28T23:59:17.931Z,5.32
